sensor_id;sensor_type;location;lat;lon;timestamp;P1;durP1;ratioP1;P2;durP2;ratioP2
9722;SDS011;4900;49.306;8.500;2022-10-20T00:00:21;18.10;;;11.57;;
9722;SDS011;4900;49.306;8.500;2022-10-20T00:03:25;15.13;;;11.10;;
9722;SDS011;4900;49.306;8.500;2022-10-20T00:06:31;19.47;;;12.10;;
9722;SDS011;4900;49.306;8.500;2022-10-20T00:09:35;16.33;;;11.30;;
9722;SDS011;4900;49.306;8.500;2022-10-20T00:12:38;16.03;;;11.63;;
9722;SDS011;4900;49.306;8.500;2022-10-20T00:15:46;15.27;;;11.20;;
9722;SDS011;4900;49.306;8.500;2022-10-20T00:18:50;17.00;;;10.87;;
9722;SDS011;4900;49.306;8.500;2022-10-20T00:21:54;15.30;;;10.90;;
9722;SDS011;4900;49.306;8.500;2022-10-20T00:24:57;15.20;;;11.53;;
9722;SDS011;4900;49.306;8.500;2022-10-20T00:28:00;16.80;;;12.37;;
9722;SDS011;4900;49.306;8.500;2022-10-20T00:31:04;15.47;;;11.07;;
9722;SDS011;4900;49.306;8.500;2022-10-20T00:34:07;15.00;;;11.03;;
9722;SDS011;4900;49.306;8.500;2022-10-20T00:37:11;15.33;;;11.63;;
9722;SDS011;4900;49.306;8.500;2022-10-20T00:40:14;14.97;;;10.10;;
9722;SDS011;4900;49.306;8.500;2022-10-20T00:43:17;15.73;;;11.37;;
9722;SDS011;4900;49.306;8.500;2022-10-20T00:46:22;15.10;;;10.60;;
9722;SDS011;4900;49.306;8.500;2022-10-20T00:49:32;15.37;;;10.70;;
9722;SDS011;4900;49.306;8.500;2022-10-20T00:52:35;16.03;;;10.83;;
9722;SDS011;4900;49.306;8.500;2022-10-20T00:55:39;16.60;;;11.27;;
9722;SDS011;4900;49.306;8.500;2022-10-20T00:58:44;20.73;;;11.57;;
9722;SDS011;4900;49.306;8.500;2022-10-20T01:01:48;21.27;;;11.43;;
9722;SDS011;4900;49.306;8.500;2022-10-20T01:04:52;15.17;;;11.27;;
9722;SDS011;4900;49.306;8.500;2022-10-20T01:07:55;14.53;;;11.00;;
9722;SDS011;4900;49.306;8.500;2022-10-20T01:14:41;17.07;;;11.67;;
9722;SDS011;4900;49.306;8.500;2022-10-20T01:27:43;15.80;;;11.17;;
9722;SDS011;4900;49.306;8.500;2022-10-20T01:30:51;15.53;;;11.47;;
9722;SDS011;4900;49.306;8.500;2022-10-20T01:44:08;14.40;;;10.57;;
9722;SDS011;4900;49.306;8.500;2022-10-20T01:47:14;16.07;;;11.63;;
9722;SDS011;4900;49.306;8.500;2022-10-20T01:50:19;15.17;;;10.57;;
9722;SDS011;4900;49.306;8.500;2022-10-20T01:53:23;14.70;;;10.70;;
9722;SDS011;4900;49.306;8.500;2022-10-20T01:56:29;15.93;;;10.70;;
9722;SDS011;4900;49.306;8.500;2022-10-20T02:00:02;16.97;;;10.40;;
9722;SDS011;4900;49.306;8.500;2022-10-20T02:09:47;13.90;;;10.57;;
9722;SDS011;4900;49.306;8.500;2022-10-20T02:12:57;16.27;;;11.13;;
9722;SDS011;4900;49.306;8.500;2022-10-20T02:16:07;15.77;;;10.60;;
9722;SDS011;4900;49.306;8.500;2022-10-20T02:19:15;13.57;;;10.07;;
9722;SDS011;4900;49.306;8.500;2022-10-20T02:22:21;15.20;;;10.37;;
9722;SDS011;4900;49.306;8.500;2022-10-20T02:25:25;15.60;;;10.90;;
9722;SDS011;4900;49.306;8.500;2022-10-20T02:28:31;13.87;;;10.23;;
9722;SDS011;4900;49.306;8.500;2022-10-20T02:31:37;14.17;;;10.77;;
9722;SDS011;4900;49.306;8.500;2022-10-20T02:34:41;14.90;;;10.40;;
9722;SDS011;4900;49.306;8.500;2022-10-20T02:37:44;13.17;;;10.10;;
9722;SDS011;4900;49.306;8.500;2022-10-20T02:40:48;13.10;;;10.17;;
9722;SDS011;4900;49.306;8.500;2022-10-20T02:43:51;13.83;;;10.00;;
9722;SDS011;4900;49.306;8.500;2022-10-20T02:46:55;14.47;;;10.33;;
9722;SDS011;4900;49.306;8.500;2022-10-20T02:49:58;13.97;;;10.40;;
9722;SDS011;4900;49.306;8.500;2022-10-20T02:53:03;12.37;;;9.93;;
9722;SDS011;4900;49.306;8.500;2022-10-20T02:56:07;12.60;;;10.07;;
9722;SDS011;4900;49.306;8.500;2022-10-20T02:59:11;13.47;;;10.70;;
9722;SDS011;4900;49.306;8.500;2022-10-20T03:02:15;16.63;;;10.30;;
9722;SDS011;4900;49.306;8.500;2022-10-20T03:05:18;12.37;;;9.93;;
9722;SDS011;4900;49.306;8.500;2022-10-20T03:08:21;13.07;;;9.83;;
9722;SDS011;4900;49.306;8.500;2022-10-20T03:11:25;13.17;;;10.70;;
9722;SDS011;4900;49.306;8.500;2022-10-20T03:14:28;13.70;;;10.50;;
9722;SDS011;4900;49.306;8.500;2022-10-20T03:17:32;12.13;;;9.70;;
9722;SDS011;4900;49.306;8.500;2022-10-20T03:20:35;12.47;;;9.47;;
9722;SDS011;4900;49.306;8.500;2022-10-20T03:23:38;15.37;;;9.80;;
9722;SDS011;4900;49.306;8.500;2022-10-20T03:26:42;13.27;;;9.40;;
9722;SDS011;4900;49.306;8.500;2022-10-20T03:29:45;14.30;;;10.33;;
9722;SDS011;4900;49.306;8.500;2022-10-20T03:32:48;16.07;;;10.00;;
9722;SDS011;4900;49.306;8.500;2022-10-20T03:35:52;15.73;;;10.63;;
9722;SDS011;4900;49.306;8.500;2022-10-20T03:38:55;12.67;;;9.80;;
9722;SDS011;4900;49.306;8.500;2022-10-20T03:42:01;13.13;;;9.37;;
9722;SDS011;4900;49.306;8.500;2022-10-20T03:45:04;14.57;;;9.57;;
9722;SDS011;4900;49.306;8.500;2022-10-20T03:48:08;18.73;;;11.00;;
9722;SDS011;4900;49.306;8.500;2022-10-20T03:51:13;14.67;;;10.23;;
9722;SDS011;4900;49.306;8.500;2022-10-20T03:54:17;17.60;;;10.70;;
9722;SDS011;4900;49.306;8.500;2022-10-20T03:57:20;12.33;;;9.63;;
9722;SDS011;4900;49.306;8.500;2022-10-20T04:00:23;18.83;;;10.37;;
9722;SDS011;4900;49.306;8.500;2022-10-20T04:03:27;13.57;;;10.07;;
9722;SDS011;4900;49.306;8.500;2022-10-20T04:06:30;10.70;;;9.10;;
9722;SDS011;4900;49.306;8.500;2022-10-20T04:09:34;13.90;;;9.67;;
9722;SDS011;4900;49.306;8.500;2022-10-20T04:12:37;13.57;;;9.77;;
9722;SDS011;4900;49.306;8.500;2022-10-20T04:15:40;14.67;;;10.60;;
9722;SDS011;4900;49.306;8.500;2022-10-20T04:18:43;16.77;;;10.67;;
9722;SDS011;4900;49.306;8.500;2022-10-20T04:21:45;14.73;;;9.77;;
9722;SDS011;4900;49.306;8.500;2022-10-20T04:24:48;14.77;;;10.50;;
9722;SDS011;4900;49.306;8.500;2022-10-20T04:27:52;14.67;;;9.77;;
9722;SDS011;4900;49.306;8.500;2022-10-20T04:30:58;11.97;;;9.67;;
9722;SDS011;4900;49.306;8.500;2022-10-20T04:34:01;13.57;;;10.13;;
9722;SDS011;4900;49.306;8.500;2022-10-20T04:37:04;13.87;;;10.30;;
9722;SDS011;4900;49.306;8.500;2022-10-20T04:40:08;13.03;;;10.40;;
9722;SDS011;4900;49.306;8.500;2022-10-20T04:43:11;14.07;;;10.23;;
9722;SDS011;4900;49.306;8.500;2022-10-20T04:46:14;13.23;;;10.03;;
9722;SDS011;4900;49.306;8.500;2022-10-20T04:49:17;14.47;;;10.27;;
9722;SDS011;4900;49.306;8.500;2022-10-20T04:52:20;12.90;;;9.40;;
9722;SDS011;4900;49.306;8.500;2022-10-20T04:55:22;16.40;;;10.23;;
9722;SDS011;4900;49.306;8.500;2022-10-20T04:58:26;13.87;;;10.33;;
9722;SDS011;4900;49.306;8.500;2022-10-20T05:01:30;13.43;;;10.43;;
9722;SDS011;4900;49.306;8.500;2022-10-20T05:04:33;12.83;;;9.93;;
9722;SDS011;4900;49.306;8.500;2022-10-20T05:07:36;14.33;;;9.67;;
9722;SDS011;4900;49.306;8.500;2022-10-20T05:10:39;16.17;;;9.87;;
9722;SDS011;4900;49.306;8.500;2022-10-20T05:13:43;13.90;;;10.23;;
9722;SDS011;4900;49.306;8.500;2022-10-20T05:16:46;13.33;;;10.40;;
9722;SDS011;4900;49.306;8.500;2022-10-20T05:19:49;12.80;;;10.17;;
9722;SDS011;4900;49.306;8.500;2022-10-20T05:22:53;16.93;;;10.97;;
9722;SDS011;4900;49.306;8.500;2022-10-20T05:25:56;13.50;;;10.33;;
9722;SDS011;4900;49.306;8.500;2022-10-20T05:28:59;12.70;;;10.20;;
9722;SDS011;4900;49.306;8.500;2022-10-20T05:32:02;13.10;;;10.60;;
9722;SDS011;4900;49.306;8.500;2022-10-20T05:35:05;15.90;;;11.90;;
9722;SDS011;4900;49.306;8.500;2022-10-20T05:38:09;15.07;;;11.53;;
9722;SDS011;4900;49.306;8.500;2022-10-20T05:41:13;16.00;;;11.43;;
9722;SDS011;4900;49.306;8.500;2022-10-20T05:44:17;15.97;;;12.13;;
9722;SDS011;4900;49.306;8.500;2022-10-20T05:47:20;14.37;;;11.13;;
9722;SDS011;4900;49.306;8.500;2022-10-20T05:50:23;15.70;;;11.50;;
9722;SDS011;4900;49.306;8.500;2022-10-20T05:53:26;17.67;;;12.77;;
9722;SDS011;4900;49.306;8.500;2022-10-20T05:56:29;16.67;;;12.30;;
9722;SDS011;4900;49.306;8.500;2022-10-20T05:59:33;17.13;;;13.30;;
9722;SDS011;4900;49.306;8.500;2022-10-20T06:02:36;17.37;;;12.90;;
9722;SDS011;4900;49.306;8.500;2022-10-20T06:05:38;15.10;;;11.97;;
9722;SDS011;4900;49.306;8.500;2022-10-20T06:08:41;15.67;;;12.23;;
9722;SDS011;4900;49.306;8.500;2022-10-20T06:11:45;13.73;;;11.57;;
9722;SDS011;4900;49.306;8.500;2022-10-20T06:14:48;15.90;;;12.23;;
9722;SDS011;4900;49.306;8.500;2022-10-20T06:17:51;19.67;;;13.30;;
9722;SDS011;4900;49.306;8.500;2022-10-20T06:20:58;17.37;;;12.63;;
9722;SDS011;4900;49.306;8.500;2022-10-20T06:24:06;15.70;;;12.10;;
9722;SDS011;4900;49.306;8.500;2022-10-20T06:27:09;18.40;;;13.17;;
9722;SDS011;4900;49.306;8.500;2022-10-20T06:30:12;18.47;;;12.87;;
9722;SDS011;4900;49.306;8.500;2022-10-20T06:33:15;18.40;;;12.50;;
9722;SDS011;4900;49.306;8.500;2022-10-20T06:36:19;18.13;;;13.20;;
9722;SDS011;4900;49.306;8.500;2022-10-20T06:39:23;18.00;;;13.40;;
9722;SDS011;4900;49.306;8.500;2022-10-20T06:42:27;18.23;;;13.00;;
9722;SDS011;4900;49.306;8.500;2022-10-20T06:45:29;18.57;;;13.80;;
9722;SDS011;4900;49.306;8.500;2022-10-20T06:48:33;20.13;;;14.37;;
9722;SDS011;4900;49.306;8.500;2022-10-20T06:51:37;18.70;;;13.50;;
9722;SDS011;4900;49.306;8.500;2022-10-20T06:54:41;18.43;;;13.83;;
9722;SDS011;4900;49.306;8.500;2022-10-20T06:57:43;17.53;;;13.20;;
9722;SDS011;4900;49.306;8.500;2022-10-20T07:00:47;19.47;;;13.27;;
9722;SDS011;4900;49.306;8.500;2022-10-20T07:03:50;18.13;;;12.97;;
9722;SDS011;4900;49.306;8.500;2022-10-20T07:06:56;20.10;;;13.93;;
9722;SDS011;4900;49.306;8.500;2022-10-20T07:09:58;16.90;;;13.30;;
9722;SDS011;4900;49.306;8.500;2022-10-20T07:13:01;17.77;;;13.30;;
9722;SDS011;4900;49.306;8.500;2022-10-20T07:16:05;18.93;;;13.43;;
9722;SDS011;4900;49.306;8.500;2022-10-20T07:19:10;16.97;;;12.57;;
9722;SDS011;4900;49.306;8.500;2022-10-20T07:22:13;16.83;;;12.33;;
9722;SDS011;4900;49.306;8.500;2022-10-20T07:25:16;16.00;;;12.55;;
9722;SDS011;4900;49.306;8.500;2022-10-20T07:28:22;19.65;;;13.23;;
9722;SDS011;4900;49.306;8.500;2022-10-20T07:31:26;17.13;;;12.27;;
9722;SDS011;4900;49.306;8.500;2022-10-20T07:34:32;20.75;;;13.55;;
9722;SDS011;4900;49.306;8.500;2022-10-20T07:37:34;19.27;;;13.10;;
9722;SDS011;4900;49.306;8.500;2022-10-20T07:40:37;17.20;;;12.25;;
9722;SDS011;4900;49.306;8.500;2022-10-20T07:43:40;15.40;;;11.90;;
9722;SDS011;4900;49.306;8.500;2022-10-20T07:46:44;17.20;;;12.07;;
9722;SDS011;4900;49.306;8.500;2022-10-20T07:49:47;16.73;;;12.40;;
9722;SDS011;4900;49.306;8.500;2022-10-20T07:52:50;15.18;;;11.43;;
9722;SDS011;4900;49.306;8.500;2022-10-20T07:55:54;15.30;;;11.30;;
9722;SDS011;4900;49.306;8.500;2022-10-20T07:58:57;16.20;;;11.98;;
9722;SDS011;4900;49.306;8.500;2022-10-20T08:02:00;14.57;;;11.60;;
9722;SDS011;4900;49.306;8.500;2022-10-20T08:05:04;16.77;;;11.90;;
9722;SDS011;4900;49.306;8.500;2022-10-20T08:08:07;13.45;;;11.10;;
9722;SDS011;4900;49.306;8.500;2022-10-20T08:11:10;15.57;;;10.93;;
9722;SDS011;4900;49.306;8.500;2022-10-20T08:14:14;12.13;;;9.95;;
9722;SDS011;4900;49.306;8.500;2022-10-20T08:17:17;15.85;;;10.60;;
9722;SDS011;4900;49.306;8.500;2022-10-20T08:20:20;13.60;;;10.27;;
9722;SDS011;4900;49.306;8.500;2022-10-20T08:23:23;11.25;;;10.05;;
9722;SDS011;4900;49.306;8.500;2022-10-20T08:26:26;12.65;;;10.00;;
9722;SDS011;4900;49.306;8.500;2022-10-20T08:29:30;13.18;;;10.57;;
9722;SDS011;4900;49.306;8.500;2022-10-20T08:32:33;13.57;;;10.07;;
9722;SDS011;4900;49.306;8.500;2022-10-20T08:35:36;12.68;;;10.20;;
9722;SDS011;4900;49.306;8.500;2022-10-20T08:38:39;13.48;;;10.30;;
9722;SDS011;4900;49.306;8.500;2022-10-20T08:41:46;14.27;;;10.13;;
9722;SDS011;4900;49.306;8.500;2022-10-20T08:44:51;10.77;;;9.63;;
9722;SDS011;4900;49.306;8.500;2022-10-20T08:48:00;11.35;;;9.88;;
9722;SDS011;4900;49.306;8.500;2022-10-20T08:51:04;12.30;;;10.05;;
9722;SDS011;4900;49.306;8.500;2022-10-20T08:54:11;12.18;;;9.82;;
9722;SDS011;4900;49.306;8.500;2022-10-20T08:57:22;12.57;;;9.52;;
9722;SDS011;4900;49.306;8.500;2022-10-20T09:00:27;10.70;;;8.73;;
9722;SDS011;4900;49.306;8.500;2022-10-20T09:03:32;12.57;;;9.57;;
9722;SDS011;4900;49.306;8.500;2022-10-20T09:06:36;11.05;;;9.00;;
9722;SDS011;4900;49.306;8.500;2022-10-20T09:09:39;9.10;;;8.18;;
9722;SDS011;4900;49.306;8.500;2022-10-20T09:12:44;10.52;;;8.77;;
9722;SDS011;4900;49.306;8.500;2022-10-20T09:15:49;9.63;;;8.38;;
9722;SDS011;4900;49.306;8.500;2022-10-20T09:18:55;8.77;;;7.93;;
9722;SDS011;4900;49.306;8.500;2022-10-20T09:22:03;9.05;;;8.10;;
9722;SDS011;4900;49.306;8.500;2022-10-20T09:25:11;9.82;;;8.30;;
9722;SDS011;4900;49.306;8.500;2022-10-20T09:28:27;8.90;;;7.53;;
9722;SDS011;4900;49.306;8.500;2022-10-20T09:31:35;9.35;;;6.85;;
9722;SDS011;4900;49.306;8.500;2022-10-20T09:34:45;8.80;;;7.65;;
9722;SDS011;4900;49.306;8.500;2022-10-20T09:38:12;10.48;;;8.52;;
9722;SDS011;4900;49.306;8.500;2022-10-20T09:44:33;11.63;;;7.90;;
9722;SDS011;4900;49.306;8.500;2022-10-20T09:47:45;7.57;;;6.47;;
9722;SDS011;4900;49.306;8.500;2022-10-20T09:50:53;8.65;;;7.70;;
9722;SDS011;4900;49.306;8.500;2022-10-20T09:53:59;8.98;;;6.65;;
9722;SDS011;4900;49.306;8.500;2022-10-20T09:57:06;9.00;;;7.18;;
9722;SDS011;4900;49.306;8.500;2022-10-20T10:00:23;9.57;;;8.32;;
9722;SDS011;4900;49.306;8.500;2022-10-20T10:03:37;9.55;;;7.38;;
9722;SDS011;4900;49.306;8.500;2022-10-20T10:06:42;11.35;;;7.18;;
9722;SDS011;4900;49.306;8.500;2022-10-20T10:09:58;7.88;;;6.40;;
9722;SDS011;4900;49.306;8.500;2022-10-20T10:13:23;9.38;;;6.88;;
9722;SDS011;4900;49.306;8.500;2022-10-20T10:16:37;8.32;;;6.97;;
9722;SDS011;4900;49.306;8.500;2022-10-20T10:19:46;7.40;;;6.22;;
9722;SDS011;4900;49.306;8.500;2022-10-20T10:22:49;7.32;;;5.22;;
9722;SDS011;4900;49.306;8.500;2022-10-20T10:25:53;7.28;;;5.68;;
9722;SDS011;4900;49.306;8.500;2022-10-20T10:28:57;7.63;;;6.40;;
9722;SDS011;4900;49.306;8.500;2022-10-20T10:32:02;7.40;;;5.82;;
9722;SDS011;4900;49.306;8.500;2022-10-20T10:35:16;8.30;;;5.22;;
9722;SDS011;4900;49.306;8.500;2022-10-20T10:38:27;6.80;;;5.50;;
9722;SDS011;4900;49.306;8.500;2022-10-20T10:41:52;8.13;;;5.93;;
9722;SDS011;4900;49.306;8.500;2022-10-20T10:45:19;7.35;;;5.40;;
9722;SDS011;4900;49.306;8.500;2022-10-20T10:48:33;7.80;;;5.40;;
9722;SDS011;4900;49.306;8.500;2022-10-20T10:55:32;5.90;;;4.93;;
9722;SDS011;4900;49.306;8.500;2022-10-20T10:58:45;7.85;;;5.28;;
9722;SDS011;4900;49.306;8.500;2022-10-20T11:26:02;7.70;;;4.82;;
9722;SDS011;4900;49.306;8.500;2022-10-20T11:29:11;5.65;;;4.80;;
9722;SDS011;4900;49.306;8.500;2022-10-20T11:32:21;5.80;;;4.50;;
9722;SDS011;4900;49.306;8.500;2022-10-20T11:35:33;5.20;;;4.70;;
9722;SDS011;4900;49.306;8.500;2022-10-20T11:38:46;5.90;;;5.28;;
9722;SDS011;4900;49.306;8.500;2022-10-20T11:41:53;6.32;;;5.28;;
9722;SDS011;4900;49.306;8.500;2022-10-20T11:45:04;7.07;;;4.60;;
9722;SDS011;4900;49.306;8.500;2022-10-20T11:48:33;5.50;;;4.60;;
9722;SDS011;4900;49.306;8.500;2022-10-20T11:51:49;5.20;;;4.22;;
9722;SDS011;4900;49.306;8.500;2022-10-20T12:16:08;11.85;;;7.97;;
9722;SDS011;4900;49.306;8.500;2022-10-20T12:19:15;7.35;;;5.78;;
9722;SDS011;4900;49.306;8.500;2022-10-20T12:22:40;5.93;;;5.00;;
9722;SDS011;4900;49.306;8.500;2022-10-20T12:25:44;7.15;;;5.20;;
9722;SDS011;4900;49.306;8.500;2022-10-20T12:28:47;9.30;;;5.30;;
9722;SDS011;4900;49.306;8.500;2022-10-20T12:35:26;7.22;;;4.65;;
9722;SDS011;4900;49.306;8.500;2022-10-20T12:38:31;6.00;;;4.68;;
9722;SDS011;4900;49.306;8.500;2022-10-20T12:41:35;6.97;;;5.13;;
9722;SDS011;4900;49.306;8.500;2022-10-20T12:44:43;7.78;;;4.78;;
9722;SDS011;4900;49.306;8.500;2022-10-20T12:47:52;7.32;;;6.47;;
9722;SDS011;4900;49.306;8.500;2022-10-20T12:51:01;10.57;;;6.18;;
9722;SDS011;4900;49.306;8.500;2022-10-20T12:54:18;8.43;;;6.88;;
9722;SDS011;4900;49.306;8.500;2022-10-20T13:03:50;7.50;;;6.70;;
9722;SDS011;4900;49.306;8.500;2022-10-20T13:06:54;8.90;;;7.63;;
9722;SDS011;4900;49.306;8.500;2022-10-20T13:09:57;9.02;;;7.45;;
9722;SDS011;4900;49.306;8.500;2022-10-20T13:16:03;6.53;;;5.90;;
9722;SDS011;4900;49.306;8.500;2022-10-20T13:19:15;9.73;;;7.57;;
9722;SDS011;4900;49.306;8.500;2022-10-20T13:26:02;11.07;;;7.45;;
9722;SDS011;4900;49.306;8.500;2022-10-20T13:36:00;10.90;;;7.32;;
9722;SDS011;4900;49.306;8.500;2022-10-20T13:40:01;9.15;;;7.85;;
9722;SDS011;4900;49.306;8.500;2022-10-20T13:43:26;9.02;;;7.00;;
9722;SDS011;4900;49.306;8.500;2022-10-20T13:50:13;9.80;;;7.85;;
9722;SDS011;4900;49.306;8.500;2022-10-20T13:53:18;8.95;;;7.55;;
9722;SDS011;4900;49.306;8.500;2022-10-20T13:59:41;8.57;;;7.75;;
9722;SDS011;4900;49.306;8.500;2022-10-20T14:03:01;10.07;;;7.72;;
9722;SDS011;4900;49.306;8.500;2022-10-20T14:06:27;10.98;;;9.07;;
9722;SDS011;4900;49.306;8.500;2022-10-20T14:09:31;10.57;;;9.32;;
9722;SDS011;4900;49.306;8.500;2022-10-20T14:12:34;10.75;;;8.18;;
9722;SDS011;4900;49.306;8.500;2022-10-20T14:15:37;9.63;;;7.82;;
9722;SDS011;4900;49.306;8.500;2022-10-20T14:18:40;9.50;;;8.48;;
9722;SDS011;4900;49.306;8.500;2022-10-20T14:21:45;9.38;;;6.88;;
9722;SDS011;4900;49.306;8.500;2022-10-20T14:24:55;7.90;;;7.05;;
9722;SDS011;4900;49.306;8.500;2022-10-20T14:28:01;10.95;;;7.93;;
9722;SDS011;4900;49.306;8.500;2022-10-20T14:31:04;9.10;;;7.35;;
9722;SDS011;4900;49.306;8.500;2022-10-20T14:34:19;7.88;;;7.07;;
9722;SDS011;4900;49.306;8.500;2022-10-20T14:37:37;8.60;;;7.40;;
9722;SDS011;4900;49.306;8.500;2022-10-20T14:40:48;11.98;;;8.60;;
9722;SDS011;4900;49.306;8.500;2022-10-20T14:43:56;11.15;;;8.25;;
9722;SDS011;4900;49.306;8.500;2022-10-20T14:47:04;9.05;;;6.90;;
9722;SDS011;4900;49.306;8.500;2022-10-20T14:50:17;11.18;;;7.88;;
9722;SDS011;4900;49.306;8.500;2022-10-20T14:56:29;10.90;;;7.05;;
9722;SDS011;4900;49.306;8.500;2022-10-20T14:59:33;10.27;;;7.30;;
9722;SDS011;4900;49.306;8.500;2022-10-20T15:02:40;10.25;;;7.85;;
9722;SDS011;4900;49.306;8.500;2022-10-20T15:05:44;10.02;;;8.35;;
9722;SDS011;4900;49.306;8.500;2022-10-20T15:08:53;11.38;;;8.13;;
9722;SDS011;4900;49.306;8.500;2022-10-20T15:12:20;9.55;;;8.45;;
9722;SDS011;4900;49.306;8.500;2022-10-20T15:15:24;9.98;;;7.50;;
9722;SDS011;4900;49.306;8.500;2022-10-20T15:18:29;7.97;;;6.90;;
9722;SDS011;4900;49.306;8.500;2022-10-20T15:21:32;8.82;;;7.07;;
9722;SDS011;4900;49.306;8.500;2022-10-20T15:24:35;9.82;;;6.65;;
9722;SDS011;4900;49.306;8.500;2022-10-20T15:27:39;9.85;;;8.00;;
9722;SDS011;4900;49.306;8.500;2022-10-20T15:30:42;9.20;;;8.23;;
9722;SDS011;4900;49.306;8.500;2022-10-20T15:33:45;8.55;;;7.50;;
9722;SDS011;4900;49.306;8.500;2022-10-20T15:36:48;10.20;;;8.40;;
9722;SDS011;4900;49.306;8.500;2022-10-20T15:39:51;10.57;;;8.75;;
9722;SDS011;4900;49.306;8.500;2022-10-20T15:42:54;13.60;;;8.73;;
9722;SDS011;4900;49.306;8.500;2022-10-20T15:45:58;9.25;;;7.38;;
9722;SDS011;4900;49.306;8.500;2022-10-20T15:49:01;8.18;;;7.22;;
9722;SDS011;4900;49.306;8.500;2022-10-20T15:52:04;9.60;;;8.13;;
9722;SDS011;4900;49.306;8.500;2022-10-20T15:55:21;11.00;;;7.82;;
9722;SDS011;4900;49.306;8.500;2022-10-20T15:58:29;10.38;;;9.05;;
9722;SDS011;4900;49.306;8.500;2022-10-20T16:01:32;11.07;;;9.07;;
9722;SDS011;4900;49.306;8.500;2022-10-20T16:04:35;10.93;;;8.43;;
9722;SDS011;4900;49.306;8.500;2022-10-20T16:07:38;9.52;;;8.50;;
9722;SDS011;4900;49.306;8.500;2022-10-20T16:10:41;12.07;;;8.75;;
9722;SDS011;4900;49.306;8.500;2022-10-20T16:13:45;10.07;;;8.50;;
9722;SDS011;4900;49.306;8.500;2022-10-20T16:16:48;11.85;;;8.75;;
9722;SDS011;4900;49.306;8.500;2022-10-20T16:19:51;11.40;;;9.35;;
9722;SDS011;4900;49.306;8.500;2022-10-20T16:22:54;9.50;;;8.20;;
9722;SDS011;4900;49.306;8.500;2022-10-20T16:25:57;11.20;;;8.52;;
9722;SDS011;4900;49.306;8.500;2022-10-20T16:29:00;15.52;;;10.00;;
9722;SDS011;4900;49.306;8.500;2022-10-20T16:32:03;14.00;;;10.95;;
9722;SDS011;4900;49.306;8.500;2022-10-20T16:35:06;11.82;;;10.35;;
9722;SDS011;4900;49.306;8.500;2022-10-20T16:38:09;13.13;;;10.60;;
9722;SDS011;4900;49.306;8.500;2022-10-20T16:41:13;12.93;;;10.55;;
9722;SDS011;4900;49.306;8.500;2022-10-20T16:44:17;12.02;;;10.00;;
9722;SDS011;4900;49.306;8.500;2022-10-20T16:47:20;14.85;;;10.88;;
9722;SDS011;4900;49.306;8.500;2022-10-20T16:50:23;14.77;;;10.95;;
9722;SDS011;4900;49.306;8.500;2022-10-20T16:53:26;13.82;;;11.57;;
9722;SDS011;4900;49.306;8.500;2022-10-20T16:56:30;14.48;;;12.00;;
9722;SDS011;4900;49.306;8.500;2022-10-20T16:59:33;13.48;;;10.82;;
9722;SDS011;4900;49.306;8.500;2022-10-20T17:02:36;12.30;;;11.00;;
9722;SDS011;4900;49.306;8.500;2022-10-20T17:05:39;12.48;;;11.18;;
9722;SDS011;4900;49.306;8.500;2022-10-20T17:08:42;12.13;;;10.10;;
9722;SDS011;4900;49.306;8.500;2022-10-20T17:11:46;14.10;;;12.05;;
9722;SDS011;4900;49.306;8.500;2022-10-20T17:14:49;12.45;;;10.23;;
9722;SDS011;4900;49.306;8.500;2022-10-20T17:17:52;17.55;;;11.82;;
9722;SDS011;4900;49.306;8.500;2022-10-20T17:20:55;15.90;;;12.80;;
9722;SDS011;4900;49.306;8.500;2022-10-20T17:23:58;16.02;;;12.43;;
9722;SDS011;4900;49.306;8.500;2022-10-20T17:27:02;15.07;;;13.25;;
9722;SDS011;4900;49.306;8.500;2022-10-20T17:30:05;13.93;;;12.18;;
9722;SDS011;4900;49.306;8.500;2022-10-20T17:33:09;17.02;;;12.13;;
9722;SDS011;4900;49.306;8.500;2022-10-20T17:36:12;15.85;;;13.68;;
9722;SDS011;4900;49.306;8.500;2022-10-20T17:39:16;18.15;;;13.32;;
9722;SDS011;4900;49.306;8.500;2022-10-20T17:42:19;15.70;;;12.95;;
9722;SDS011;4900;49.306;8.500;2022-10-20T17:45:22;17.15;;;13.55;;
9722;SDS011;4900;49.306;8.500;2022-10-20T17:48:25;19.88;;;14.27;;
9722;SDS011;4900;49.306;8.500;2022-10-20T17:51:29;19.95;;;14.25;;
9722;SDS011;4900;49.306;8.500;2022-10-20T17:54:32;17.27;;;13.40;;
9722;SDS011;4900;49.306;8.500;2022-10-20T17:57:35;19.55;;;13.95;;
9722;SDS011;4900;49.306;8.500;2022-10-20T18:00:38;18.90;;;14.27;;
9722;SDS011;4900;49.306;8.500;2022-10-20T18:03:42;19.75;;;14.35;;
9722;SDS011;4900;49.306;8.500;2022-10-20T18:06:45;18.27;;;14.48;;
9722;SDS011;4900;49.306;8.500;2022-10-20T18:09:49;17.40;;;14.75;;
9722;SDS011;4900;49.306;8.500;2022-10-20T18:12:52;17.75;;;14.25;;
9722;SDS011;4900;49.306;8.500;2022-10-20T18:15:56;18.08;;;13.40;;
9722;SDS011;4900;49.306;8.500;2022-10-20T18:18:59;18.27;;;13.88;;
9722;SDS011;4900;49.306;8.500;2022-10-20T18:22:03;18.42;;;14.07;;
9722;SDS011;4900;49.306;8.500;2022-10-20T18:25:06;17.58;;;13.18;;
9722;SDS011;4900;49.306;8.500;2022-10-20T18:28:09;20.35;;;14.95;;
9722;SDS011;4900;49.306;8.500;2022-10-20T18:31:17;18.52;;;13.93;;
9722;SDS011;4900;49.306;8.500;2022-10-20T18:34:23;17.88;;;13.02;;
9722;SDS011;4900;49.306;8.500;2022-10-20T18:37:26;16.52;;;12.90;;
9722;SDS011;4900;49.306;8.500;2022-10-20T18:40:30;15.77;;;13.43;;
9722;SDS011;4900;49.306;8.500;2022-10-20T18:43:34;16.70;;;14.20;;
9722;SDS011;4900;49.306;8.500;2022-10-20T18:46:37;19.05;;;15.55;;
9722;SDS011;4900;49.306;8.500;2022-10-20T18:49:41;19.17;;;15.75;;
9722;SDS011;4900;49.306;8.500;2022-10-20T18:52:44;18.80;;;15.02;;
9722;SDS011;4900;49.306;8.500;2022-10-20T18:56:00;17.45;;;14.02;;
9722;SDS011;4900;49.306;8.500;2022-10-20T18:59:04;17.48;;;14.20;;
9722;SDS011;4900;49.306;8.500;2022-10-20T19:02:10;17.63;;;14.55;;
9722;SDS011;4900;49.306;8.500;2022-10-20T19:05:13;17.50;;;15.13;;
9722;SDS011;4900;49.306;8.500;2022-10-20T19:08:17;16.92;;;14.00;;
9722;SDS011;4900;49.306;8.500;2022-10-20T19:11:20;19.80;;;13.65;;
9722;SDS011;4900;49.306;8.500;2022-10-20T19:14:25;17.67;;;14.63;;
9722;SDS011;4900;49.306;8.500;2022-10-20T19:17:28;19.17;;;15.05;;
9722;SDS011;4900;49.306;8.500;2022-10-20T19:20:31;16.85;;;13.93;;
9722;SDS011;4900;49.306;8.500;2022-10-20T19:23:35;21.73;;;15.90;;
9722;SDS011;4900;49.306;8.500;2022-10-20T19:26:48;16.00;;;14.32;;
9722;SDS011;4900;49.306;8.500;2022-10-20T19:29:56;19.80;;;15.73;;
9722;SDS011;4900;49.306;8.500;2022-10-20T19:33:03;18.15;;;15.48;;
9722;SDS011;4900;49.306;8.500;2022-10-20T19:36:06;17.85;;;14.82;;
9722;SDS011;4900;49.306;8.500;2022-10-20T19:39:10;19.10;;;14.23;;
9722;SDS011;4900;49.306;8.500;2022-10-20T19:42:13;18.42;;;13.38;;
9722;SDS011;4900;49.306;8.500;2022-10-20T19:45:18;22.42;;;15.10;;
9722;SDS011;4900;49.306;8.500;2022-10-20T19:48:22;16.23;;;12.85;;
9722;SDS011;4900;49.306;8.500;2022-10-20T19:51:25;18.25;;;14.05;;
9722;SDS011;4900;49.306;8.500;2022-10-20T19:54:29;16.33;;;14.10;;
9722;SDS011;4900;49.306;8.500;2022-10-20T19:57:32;15.68;;;12.80;;
9722;SDS011;4900;49.306;8.500;2022-10-20T20:00:35;13.70;;;11.98;;
9722;SDS011;4900;49.306;8.500;2022-10-20T20:03:38;16.55;;;13.52;;
9722;SDS011;4900;49.306;8.500;2022-10-20T20:06:41;16.83;;;14.13;;
9722;SDS011;4900;49.306;8.500;2022-10-20T20:09:44;15.90;;;12.60;;
9722;SDS011;4900;49.306;8.500;2022-10-20T20:12:47;17.15;;;11.63;;
9722;SDS011;4900;49.306;8.500;2022-10-20T20:15:50;15.73;;;12.85;;
9722;SDS011;4900;49.306;8.500;2022-10-20T20:18:54;14.40;;;12.77;;
9722;SDS011;4900;49.306;8.500;2022-10-20T20:21:57;17.45;;;12.90;;
9722;SDS011;4900;49.306;8.500;2022-10-20T20:25:00;15.07;;;12.23;;
9722;SDS011;4900;49.306;8.500;2022-10-20T20:28:03;16.48;;;12.77;;
9722;SDS011;4900;49.306;8.500;2022-10-20T20:31:08;16.08;;;13.43;;
9722;SDS011;4900;49.306;8.500;2022-10-20T20:34:13;16.60;;;12.63;;
9722;SDS011;4900;49.306;8.500;2022-10-20T20:37:16;16.27;;;12.68;;
9722;SDS011;4900;49.306;8.500;2022-10-20T20:40:19;16.60;;;13.23;;
9722;SDS011;4900;49.306;8.500;2022-10-20T20:43:23;15.32;;;12.30;;